sensor_id;sensor_type;location;lat;lon;timestamp;P1;durP1;ratioP1;P2;durP2;ratioP2
32080;SDS011;18593;51.426;7.030;2024-02-14T00:00:31;12.90;;;3.80;;
32080;SDS011;18593;51.426;7.030;2024-02-14T00:02:59;8.50;;;3.80;;
32080;SDS011;18593;51.426;7.030;2024-02-14T00:05:26;9.45;;;3.53;;
32080;SDS011;18593;51.426;7.030;2024-02-14T00:07:54;6.93;;;3.38;;
32080;SDS011;18593;51.426;7.030;2024-02-14T00:10:22;9.55;;;3.80;;
32080;SDS011;18593;51.426;7.030;2024-02-14T00:12:49;12.15;;;3.38;;
32080;SDS011;18593;51.426;7.030;2024-02-14T00:15:19;7.65;;;3.38;;
32080;SDS011;18593;51.426;7.030;2024-02-14T00:17:46;9.38;;;3.58;;
32080;SDS011;18593;51.426;7.030;2024-02-14T00:20:14;10.20;;;3.63;;
32080;SDS011;18593;51.426;7.030;2024-02-14T00:22:41;10.20;;;3.50;;
32080;SDS011;18593;51.426;7.030;2024-02-14T00:25:09;10.43;;;3.45;;
32080;SDS011;18593;51.426;7.030;2024-02-14T00:27:36;7.88;;;3.55;;
32080;SDS011;18593;51.426;7.030;2024-02-14T00:30:05;9.93;;;3.50;;
32080;SDS011;18593;51.426;7.030;2024-02-14T00:32:36;8.95;;;3.40;;
32080;SDS011;18593;51.426;7.030;2024-02-14T00:35:04;9.35;;;3.47;;
32080;SDS011;18593;51.426;7.030;2024-02-14T00:37:33;7.20;;;3.42;;
32080;SDS011;18593;51.426;7.030;2024-02-14T00:40:00;6.07;;;3.03;;
32080;SDS011;18593;51.426;7.030;2024-02-14T00:42:28;7.20;;;3.20;;
32080;SDS011;18593;51.426;7.030;2024-02-14T00:44:56;6.40;;;2.90;;
32080;SDS011;18593;51.426;7.030;2024-02-14T00:47:23;10.10;;;3.47;;
32080;SDS011;18593;51.426;7.030;2024-02-14T00:49:52;9.63;;;3.28;;
32080;SDS011;18593;51.426;7.030;2024-02-14T00:52:19;10.15;;;3.05;;
32080;SDS011;18593;51.426;7.030;2024-02-14T00:54:47;8.32;;;4.00;;
32080;SDS011;18593;51.426;7.030;2024-02-14T00:57:15;7.82;;;3.50;;
32080;SDS011;18593;51.426;7.030;2024-02-14T00:59:43;9.68;;;3.78;;
32080;SDS011;18593;51.426;7.030;2024-02-14T01:02:11;8.40;;;3.88;;
32080;SDS011;18593;51.426;7.030;2024-02-14T01:04:39;7.03;;;3.50;;
32080;SDS011;18593;51.426;7.030;2024-02-14T01:07:08;10.82;;;4.28;;
32080;SDS011;18593;51.426;7.030;2024-02-14T01:09:35;8.35;;;4.07;;
32080;SDS011;18593;51.426;7.030;2024-02-14T01:12:03;8.95;;;3.95;;
32080;SDS011;18593;51.426;7.030;2024-02-14T01:14:32;8.40;;;3.60;;
32080;SDS011;18593;51.426;7.030;2024-02-14T01:16:59;9.77;;;3.95;;
32080;SDS011;18593;51.426;7.030;2024-02-14T01:19:26;10.27;;;3.95;;
32080;SDS011;18593;51.426;7.030;2024-02-14T01:21:54;10.18;;;4.07;;
32080;SDS011;18593;51.426;7.030;2024-02-14T01:24:24;9.57;;;4.10;;
32080;SDS011;18593;51.426;7.030;2024-02-14T01:26:53;9.38;;;3.95;;
32080;SDS011;18593;51.426;7.030;2024-02-14T01:29:21;10.82;;;4.30;;
32080;SDS011;18593;51.426;7.030;2024-02-14T01:31:49;6.70;;;3.33;;
32080;SDS011;18593;51.426;7.030;2024-02-14T01:34:16;9.35;;;3.78;;
32080;SDS011;18593;51.426;7.030;2024-02-14T01:36:44;14.23;;;3.80;;
32080;SDS011;18593;51.426;7.030;2024-02-14T01:39:12;11.48;;;3.55;;
32080;SDS011;18593;51.426;7.030;2024-02-14T01:41:45;8.25;;;3.45;;
32080;SDS011;18593;51.426;7.030;2024-02-14T01:44:13;9.93;;;3.40;;
32080;SDS011;18593;51.426;7.030;2024-02-14T01:46:41;9.10;;;3.60;;
32080;SDS011;18593;51.426;7.030;2024-02-14T01:49:08;10.65;;;3.17;;
32080;SDS011;18593;51.426;7.030;2024-02-14T01:51:37;7.75;;;3.22;;
32080;SDS011;18593;51.426;7.030;2024-02-14T01:54:06;6.47;;;2.95;;
32080;SDS011;18593;51.426;7.030;2024-02-14T01:56:34;7.80;;;3.15;;
32080;SDS011;18593;51.426;7.030;2024-02-14T01:59:03;7.38;;;2.78;;
32080;SDS011;18593;51.426;7.030;2024-02-14T02:01:32;7.25;;;2.92;;
32080;SDS011;18593;51.426;7.030;2024-02-14T02:04:00;7.57;;;2.78;;
32080;SDS011;18593;51.426;7.030;2024-02-14T02:06:30;6.30;;;2.83;;
32080;SDS011;18593;51.426;7.030;2024-02-14T02:08:58;7.80;;;2.88;;
32080;SDS011;18593;51.426;7.030;2024-02-14T02:11:26;8.52;;;3.10;;
32080;SDS011;18593;51.426;7.030;2024-02-14T02:13:54;7.43;;;2.83;;
32080;SDS011;18593;51.426;7.030;2024-02-14T02:16:23;5.30;;;2.75;;
32080;SDS011;18593;51.426;7.030;2024-02-14T02:18:50;7.65;;;2.97;;
32080;SDS011;18593;51.426;7.030;2024-02-14T02:21:17;4.90;;;2.83;;
32080;SDS011;18593;51.426;7.030;2024-02-14T02:23:49;7.32;;;2.75;;
32080;SDS011;18593;51.426;7.030;2024-02-14T02:26:17;7.65;;;3.10;;
32080;SDS011;18593;51.426;7.030;2024-02-14T02:28:44;5.20;;;2.70;;
32080;SDS011;18593;51.426;7.030;2024-02-14T02:31:12;6.40;;;2.72;;
32080;SDS011;18593;51.426;7.030;2024-02-14T02:33:39;7.57;;;2.38;;
32080;SDS011;18593;51.426;7.030;2024-02-14T02:36:07;6.70;;;2.72;;
32080;SDS011;18593;51.426;7.030;2024-02-14T02:38:35;6.25;;;2.20;;
32080;SDS011;18593;51.426;7.030;2024-02-14T02:41:04;7.07;;;2.40;;
32080;SDS011;18593;51.426;7.030;2024-02-14T02:43:32;5.30;;;2.00;;
32080;SDS011;18593;51.426;7.030;2024-02-14T02:46:00;7.38;;;2.55;;
32080;SDS011;18593;51.426;7.030;2024-02-14T02:48:28;4.90;;;2.20;;
32080;SDS011;18593;51.426;7.030;2024-02-14T02:50:56;7.05;;;2.60;;
32080;SDS011;18593;51.426;7.030;2024-02-14T02:53:24;7.47;;;2.30;;
32080;SDS011;18593;51.426;7.030;2024-02-14T02:55:52;6.07;;;2.28;;
32080;SDS011;18593;51.426;7.030;2024-02-14T02:58:21;7.90;;;2.17;;
32080;SDS011;18593;51.426;7.030;2024-02-14T03:00:48;5.53;;;2.10;;
32080;SDS011;18593;51.426;7.030;2024-02-14T03:03:15;6.53;;;2.08;;
32080;SDS011;18593;51.426;7.030;2024-02-14T03:05:42;5.80;;;2.00;;
32080;SDS011;18593;51.426;7.030;2024-02-14T03:08:10;5.05;;;2.30;;
32080;SDS011;18593;51.426;7.030;2024-02-14T03:10:40;4.60;;;2.25;;
32080;SDS011;18593;51.426;7.030;2024-02-14T03:13:11;5.40;;;1.80;;
32080;SDS011;18593;51.426;7.030;2024-02-14T03:15:39;4.50;;;1.90;;
32080;SDS011;18593;51.426;7.030;2024-02-14T03:18:09;4.35;;;1.95;;
32080;SDS011;18593;51.426;7.030;2024-02-14T03:20:36;4.68;;;1.52;;
32080;SDS011;18593;51.426;7.030;2024-02-14T03:23:04;4.25;;;1.98;;
32080;SDS011;18593;51.426;7.030;2024-02-14T03:25:31;6.05;;;1.70;;
32080;SDS011;18593;51.426;7.030;2024-02-14T03:28:02;4.68;;;2.00;;
32080;SDS011;18593;51.426;7.030;2024-02-14T03:30:32;6.90;;;2.15;;
32080;SDS011;18593;51.426;7.030;2024-02-14T03:33:01;5.47;;;2.20;;
32080;SDS011;18593;51.426;7.030;2024-02-14T03:35:29;6.75;;;2.00;;
32080;SDS011;18593;51.426;7.030;2024-02-14T03:37:56;3.28;;;1.58;;
32080;SDS011;18593;51.426;7.030;2024-02-14T03:40:29;3.90;;;1.80;;
32080;SDS011;18593;51.426;7.030;2024-02-14T03:42:56;4.60;;;1.85;;
32080;SDS011;18593;51.426;7.030;2024-02-14T03:45:24;4.03;;;1.75;;
32080;SDS011;18593;51.426;7.030;2024-02-14T03:47:53;4.53;;;1.63;;
32080;SDS011;18593;51.426;7.030;2024-02-14T03:50:23;4.68;;;2.00;;
32080;SDS011;18593;51.426;7.030;2024-02-14T03:52:50;4.63;;;1.90;;
32080;SDS011;18593;51.426;7.030;2024-02-14T03:55:18;5.38;;;2.00;;
32080;SDS011;18593;51.426;7.030;2024-02-14T03:57:47;4.28;;;1.95;;
32080;SDS011;18593;51.426;7.030;2024-02-14T04:00:16;4.07;;;2.17;;
32080;SDS011;18593;51.426;7.030;2024-02-14T04:02:45;5.68;;;2.40;;
32080;SDS011;18593;51.426;7.030;2024-02-14T04:05:14;5.80;;;2.20;;
32080;SDS011;18593;51.426;7.030;2024-02-14T04:07:43;4.38;;;1.90;;
32080;SDS011;18593;51.426;7.030;2024-02-14T04:10:14;7.43;;;2.47;;
32080;SDS011;18593;51.426;7.030;2024-02-14T04:12:42;6.18;;;2.60;;
32080;SDS011;18593;51.426;7.030;2024-02-14T04:15:10;4.60;;;2.30;;
32080;SDS011;18593;51.426;7.030;2024-02-14T04:17:37;5.18;;;2.22;;
32080;SDS011;18593;51.426;7.030;2024-02-14T04:20:06;6.45;;;2.33;;
32080;SDS011;18593;51.426;7.030;2024-02-14T04:22:34;5.05;;;2.28;;
32080;SDS011;18593;51.426;7.030;2024-02-14T04:25:04;4.22;;;1.90;;
32080;SDS011;18593;51.426;7.030;2024-02-14T04:27:34;6.03;;;2.30;;
32080;SDS011;18593;51.426;7.030;2024-02-14T04:30:01;4.75;;;2.20;;
32080;SDS011;18593;51.426;7.030;2024-02-14T04:32:29;6.22;;;2.22;;
32080;SDS011;18593;51.426;7.030;2024-02-14T04:34:57;7.47;;;2.40;;
32080;SDS011;18593;51.426;7.030;2024-02-14T04:37:25;5.15;;;2.45;;
32080;SDS011;18593;51.426;7.030;2024-02-14T04:39:52;5.82;;;2.50;;
32080;SDS011;18593;51.426;7.030;2024-02-14T04:42:21;4.65;;;2.35;;
32080;SDS011;18593;51.426;7.030;2024-02-14T04:44:48;7.07;;;2.80;;
32080;SDS011;18593;51.426;7.030;2024-02-14T04:47:16;9.20;;;2.90;;
32080;SDS011;18593;51.426;7.030;2024-02-14T04:49:43;7.57;;;2.65;;
32080;SDS011;18593;51.426;7.030;2024-02-14T04:52:11;4.78;;;2.30;;
32080;SDS011;18593;51.426;7.030;2024-02-14T04:54:39;6.75;;;2.80;;
32080;SDS011;18593;51.426;7.030;2024-02-14T04:57:06;6.45;;;2.90;;
32080;SDS011;18593;51.426;7.030;2024-02-14T04:59:35;5.22;;;2.80;;
32080;SDS011;18593;51.426;7.030;2024-02-14T05:02:02;6.22;;;2.83;;
32080;SDS011;18593;51.426;7.030;2024-02-14T05:04:30;7.00;;;2.92;;
32080;SDS011;18593;51.426;7.030;2024-02-14T05:06:57;5.80;;;2.90;;
32080;SDS011;18593;51.426;7.030;2024-02-14T05:09:25;6.68;;;2.85;;
32080;SDS011;18593;51.426;7.030;2024-02-14T05:11:53;7.07;;;2.67;;
32080;SDS011;18593;51.426;7.030;2024-02-14T05:14:20;5.57;;;2.70;;
32080;SDS011;18593;51.426;7.030;2024-02-14T05:16:50;8.00;;;2.80;;
32080;SDS011;18593;51.426;7.030;2024-02-14T05:19:17;6.32;;;3.13;;
32080;SDS011;18593;51.426;7.030;2024-02-14T05:21:46;7.70;;;3.03;;
32080;SDS011;18593;51.426;7.030;2024-02-14T05:24:14;9.35;;;2.92;;
32080;SDS011;18593;51.426;7.030;2024-02-14T05:26:41;6.45;;;2.85;;
32080;SDS011;18593;51.426;7.030;2024-02-14T05:29:09;6.95;;;2.97;;
32080;SDS011;18593;51.426;7.030;2024-02-14T05:31:43;7.00;;;3.15;;
32080;SDS011;18593;51.426;7.030;2024-02-14T05:34:14;5.70;;;2.75;;
32080;SDS011;18593;51.426;7.030;2024-02-14T05:36:41;8.35;;;3.10;;
32080;SDS011;18593;51.426;7.030;2024-02-14T05:39:11;5.93;;;3.10;;
32080;SDS011;18593;51.426;7.030;2024-02-14T05:41:39;7.70;;;3.60;;
32080;SDS011;18593;51.426;7.030;2024-02-14T05:44:07;7.03;;;3.22;;
32080;SDS011;18593;51.426;7.030;2024-02-14T05:46:34;6.53;;;3.55;;
32080;SDS011;18593;51.426;7.030;2024-02-14T05:49:01;6.78;;;3.35;;
32080;SDS011;18593;51.426;7.030;2024-02-14T05:51:30;9.05;;;3.33;;
32080;SDS011;18593;51.426;7.030;2024-02-14T05:53:57;7.22;;;3.45;;
32080;SDS011;18593;51.426;7.030;2024-02-14T05:56:25;6.75;;;3.55;;
32080;SDS011;18593;51.426;7.030;2024-02-14T05:58:52;6.43;;;3.30;;
32080;SDS011;18593;51.426;7.030;2024-02-14T06:01:20;8.88;;;3.80;;
32080;SDS011;18593;51.426;7.030;2024-02-14T06:03:47;7.90;;;3.38;;
32080;SDS011;18593;51.426;7.030;2024-02-14T06:06:14;7.53;;;3.55;;
32080;SDS011;18593;51.426;7.030;2024-02-14T06:08:43;7.53;;;3.53;;
32080;SDS011;18593;51.426;7.030;2024-02-14T06:11:14;8.80;;;3.42;;
32080;SDS011;18593;51.426;7.030;2024-02-14T06:13:42;7.38;;;3.95;;
32080;SDS011;18593;51.426;7.030;2024-02-14T06:16:10;7.97;;;4.05;;
32080;SDS011;18593;51.426;7.030;2024-02-14T06:18:38;8.77;;;4.45;;
32080;SDS011;18593;51.426;7.030;2024-02-14T06:21:07;6.35;;;3.80;;
32080;SDS011;18593;51.426;7.030;2024-02-14T06:23:35;9.18;;;4.30;;
32080;SDS011;18593;51.426;7.030;2024-02-14T06:26:05;7.90;;;4.07;;
32080;SDS011;18593;51.426;7.030;2024-02-14T06:28:35;9.60;;;4.35;;
32080;SDS011;18593;51.426;7.030;2024-02-14T06:31:02;9.57;;;4.95;;
32080;SDS011;18593;51.426;7.030;2024-02-14T06:33:30;9.65;;;4.80;;
32080;SDS011;18593;51.426;7.030;2024-02-14T06:35:58;8.20;;;4.40;;
32080;SDS011;18593;51.426;7.030;2024-02-14T06:38:25;9.43;;;5.00;;
32080;SDS011;18593;51.426;7.030;2024-02-14T06:40:53;9.18;;;5.18;;
32080;SDS011;18593;51.426;7.030;2024-02-14T06:43:21;11.48;;;5.35;;
32080;SDS011;18593;51.426;7.030;2024-02-14T06:45:49;10.75;;;5.68;;
32080;SDS011;18593;51.426;7.030;2024-02-14T06:48:16;8.43;;;5.05;;
32080;SDS011;18593;51.426;7.030;2024-02-14T06:50:47;9.82;;;5.55;;
32080;SDS011;18593;51.426;7.030;2024-02-14T06:53:14;7.35;;;5.10;;
32080;SDS011;18593;51.426;7.030;2024-02-14T06:55:42;11.45;;;5.72;;
32080;SDS011;18593;51.426;7.030;2024-02-14T06:58:09;10.48;;;5.40;;
32080;SDS011;18593;51.426;7.030;2024-02-14T07:00:38;10.52;;;4.80;;
32080;SDS011;18593;51.426;7.030;2024-02-14T07:03:06;9.57;;;5.45;;
32080;SDS011;18593;51.426;7.030;2024-02-14T07:05:33;7.63;;;4.65;;
32080;SDS011;18593;51.426;7.030;2024-02-14T07:08:00;11.35;;;5.28;;
32080;SDS011;18593;51.426;7.030;2024-02-14T07:10:28;9.00;;;4.93;;
32080;SDS011;18593;51.426;7.030;2024-02-14T07:12:56;9.63;;;5.35;;
32080;SDS011;18593;51.426;7.030;2024-02-14T07:15:23;7.72;;;4.90;;
32080;SDS011;18593;51.426;7.030;2024-02-14T07:17:55;10.77;;;4.90;;
32080;SDS011;18593;51.426;7.030;2024-02-14T07:20:23;10.45;;;5.25;;
32080;SDS011;18593;51.426;7.030;2024-02-14T07:22:52;8.50;;;5.10;;
32080;SDS011;18593;51.426;7.030;2024-02-14T07:25:21;10.15;;;5.32;;
32080;SDS011;18593;51.426;7.030;2024-02-14T07:27:49;10.10;;;5.55;;
32080;SDS011;18593;51.426;7.030;2024-02-14T07:30:16;9.65;;;5.30;;
32080;SDS011;18593;51.426;7.030;2024-02-14T07:32:44;8.52;;;5.22;;
32080;SDS011;18593;51.426;7.030;2024-02-14T07:35:13;9.05;;;5.20;;
32080;SDS011;18593;51.426;7.030;2024-02-14T07:37:41;8.75;;;5.20;;
32080;SDS011;18593;51.426;7.030;2024-02-14T07:40:09;11.18;;;5.35;;
32080;SDS011;18593;51.426;7.030;2024-02-14T07:42:38;11.40;;;5.50;;
32080;SDS011;18593;51.426;7.030;2024-02-14T07:45:05;10.55;;;5.32;;
32080;SDS011;18593;51.426;7.030;2024-02-14T07:47:34;10.93;;;5.60;;
32080;SDS011;18593;51.426;7.030;2024-02-14T07:50:01;12.88;;;5.60;;
32080;SDS011;18593;51.426;7.030;2024-02-14T07:52:30;12.75;;;5.55;;
32080;SDS011;18593;51.426;7.030;2024-02-14T07:54:58;7.72;;;4.88;;
32080;SDS011;18593;51.426;7.030;2024-02-14T07:57:29;10.30;;;5.32;;
32080;SDS011;18593;51.426;7.030;2024-02-14T07:59:56;6.38;;;4.38;;
32080;SDS011;18593;51.426;7.030;2024-02-14T08:02:23;12.20;;;5.00;;
32080;SDS011;18593;51.426;7.030;2024-02-14T08:04:52;9.32;;;4.68;;
32080;SDS011;18593;51.426;7.030;2024-02-14T08:07:20;7.88;;;5.30;;
32080;SDS011;18593;51.426;7.030;2024-02-14T08:09:49;9.00;;;4.93;;
32080;SDS011;18593;51.426;7.030;2024-02-14T08:12:16;7.88;;;4.60;;
32080;SDS011;18593;51.426;7.030;2024-02-14T08:14:44;11.40;;;4.32;;
32080;SDS011;18593;51.426;7.030;2024-02-14T08:17:12;8.68;;;4.40;;
32080;SDS011;18593;51.426;7.030;2024-02-14T08:19:40;7.40;;;3.92;;
32080;SDS011;18593;51.426;7.030;2024-02-14T08:22:07;9.15;;;4.68;;
32080;SDS011;18593;51.426;7.030;2024-02-14T08:24:34;13.40;;;4.57;;
32080;SDS011;18593;51.426;7.030;2024-02-14T08:27:03;8.82;;;4.20;;
32080;SDS011;18593;51.426;7.030;2024-02-14T08:29:32;7.28;;;3.95;;
32080;SDS011;18593;51.426;7.030;2024-02-14T08:31:59;7.38;;;4.38;;
32080;SDS011;18593;51.426;7.030;2024-02-14T08:34:28;7.22;;;3.92;;
32080;SDS011;18593;51.426;7.030;2024-02-14T08:36:55;9.32;;;3.95;;
32080;SDS011;18593;51.426;7.030;2024-02-14T08:39:23;7.05;;;3.80;;
32080;SDS011;18593;51.426;7.030;2024-02-14T08:41:51;6.65;;;3.55;;
32080;SDS011;18593;51.426;7.030;2024-02-14T08:44:20;9.00;;;3.63;;
32080;SDS011;18593;51.426;7.030;2024-02-14T08:46:48;10.93;;;4.07;;
32080;SDS011;18593;51.426;7.030;2024-02-14T08:49:15;7.07;;;3.47;;
32080;SDS011;18593;51.426;7.030;2024-02-14T08:51:43;11.00;;;4.10;;
32080;SDS011;18593;51.426;7.030;2024-02-14T08:54:11;9.00;;;3.75;;
32080;SDS011;18593;51.426;7.030;2024-02-14T08:56:41;8.80;;;3.55;;
32080;SDS011;18593;51.426;7.030;2024-02-14T08:59:08;10.93;;;3.97;;
32080;SDS011;18593;51.426;7.030;2024-02-14T09:01:38;12.55;;;3.45;;
32080;SDS011;18593;51.426;7.030;2024-02-14T09:04:05;9.45;;;3.30;;
32080;SDS011;18593;51.426;7.030;2024-02-14T09:06:33;8.68;;;3.28;;
32080;SDS011;18593;51.426;7.030;2024-02-14T09:09:01;7.40;;;3.42;;
32080;SDS011;18593;51.426;7.030;2024-02-14T09:11:28;8.27;;;3.75;;
32080;SDS011;18593;51.426;7.030;2024-02-14T09:13:59;8.27;;;3.63;;
32080;SDS011;18593;51.426;7.030;2024-02-14T09:16:31;7.05;;;3.20;;
32080;SDS011;18593;51.426;7.030;2024-02-14T09:19:00;6.78;;;3.45;;
32080;SDS011;18593;51.426;7.030;2024-02-14T09:21:30;7.45;;;3.33;;
32080;SDS011;18593;51.426;7.030;2024-02-14T09:23:59;7.35;;;3.22;;
32080;SDS011;18593;51.426;7.030;2024-02-14T09:26:28;10.05;;;3.58;;
32080;SDS011;18593;51.426;7.030;2024-02-14T09:28:55;9.15;;;3.35;;
32080;SDS011;18593;51.426;7.030;2024-02-14T09:31:23;9.15;;;3.40;;
32080;SDS011;18593;51.426;7.030;2024-02-14T09:33:54;11.32;;;4.20;;
32080;SDS011;18593;51.426;7.030;2024-02-14T09:36:24;9.85;;;4.20;;
32080;SDS011;18593;51.426;7.030;2024-02-14T09:38:55;10.13;;;4.53;;
32080;SDS011;18593;51.426;7.030;2024-02-14T09:41:30;9.82;;;4.38;;
32080;SDS011;18593;51.426;7.030;2024-02-14T09:44:02;9.80;;;4.35;;
32080;SDS011;18593;51.426;7.030;2024-02-14T09:46:31;10.35;;;4.60;;
32080;SDS011;18593;51.426;7.030;2024-02-14T09:49:05;10.20;;;4.60;;
32080;SDS011;18593;51.426;7.030;2024-02-14T09:51:34;11.40;;;5.13;;
32080;SDS011;18593;51.426;7.030;2024-02-14T09:54:03;9.60;;;5.50;;
32080;SDS011;18593;51.426;7.030;2024-02-14T09:56:30;9.23;;;5.30;;
32080;SDS011;18593;51.426;7.030;2024-02-14T09:58:58;11.73;;;6.38;;
32080;SDS011;18593;51.426;7.030;2024-02-14T10:01:28;11.52;;;5.47;;
32080;SDS011;18593;51.426;7.030;2024-02-14T10:03:55;9.65;;;5.80;;
32080;SDS011;18593;51.426;7.030;2024-02-14T10:06:22;12.20;;;5.88;;
32080;SDS011;18593;51.426;7.030;2024-02-14T10:08:52;13.25;;;6.05;;
32080;SDS011;18593;51.426;7.030;2024-02-14T10:11:19;12.55;;;6.07;;
32080;SDS011;18593;51.426;7.030;2024-02-14T10:13:48;12.30;;;5.70;;
32080;SDS011;18593;51.426;7.030;2024-02-14T10:16:18;8.95;;;5.18;;
32080;SDS011;18593;51.426;7.030;2024-02-14T10:18:46;10.50;;;5.40;;
32080;SDS011;18593;51.426;7.030;2024-02-14T10:21:14;11.02;;;5.35;;
32080;SDS011;18593;51.426;7.030;2024-02-14T10:23:44;11.15;;;5.60;;
32080;SDS011;18593;51.426;7.030;2024-02-14T10:26:16;11.80;;;5.20;;
32080;SDS011;18593;51.426;7.030;2024-02-14T10:28:44;12.40;;;5.70;;
32080;SDS011;18593;51.426;7.030;2024-02-14T10:31:12;13.43;;;6.10;;
32080;SDS011;18593;51.426;7.030;2024-02-14T10:33:40;11.50;;;5.53;;
32080;SDS011;18593;51.426;7.030;2024-02-14T10:36:08;10.27;;;5.60;;
32080;SDS011;18593;51.426;7.030;2024-02-14T10:38:38;11.43;;;5.35;;
32080;SDS011;18593;51.426;7.030;2024-02-14T10:41:07;13.52;;;6.00;;
32080;SDS011;18593;51.426;7.030;2024-02-14T10:43:37;9.57;;;5.40;;
32080;SDS011;18593;51.426;7.030;2024-02-14T10:46:11;13.98;;;5.60;;
32080;SDS011;18593;51.426;7.030;2024-02-14T10:49:02;11.13;;;5.70;;
32080;SDS011;18593;51.426;7.030;2024-02-14T10:51:32;12.98;;;5.95;;
32080;SDS011;18593;51.426;7.030;2024-02-14T10:54:01;15.38;;;5.60;;
32080;SDS011;18593;51.426;7.030;2024-02-14T10:56:36;11.77;;;5.53;;
32080;SDS011;18593;51.426;7.030;2024-02-14T10:59:12;10.23;;;5.43;;
32080;SDS011;18593;51.426;7.030;2024-02-14T11:01:45;8.90;;;5.13;;
32080;SDS011;18593;51.426;7.030;2024-02-14T11:04:14;9.45;;;5.57;;
32080;SDS011;18593;51.426;7.030;2024-02-14T11:06:44;10.93;;;5.00;;
32080;SDS011;18593;51.426;7.030;2024-02-14T11:09:12;10.23;;;5.00;;
32080;SDS011;18593;51.426;7.030;2024-02-14T11:11:41;12.15;;;5.28;;
32080;SDS011;18593;51.426;7.030;2024-02-14T11:14:10;10.55;;;5.28;;
32080;SDS011;18593;51.426;7.030;2024-02-14T11:16:44;13.00;;;4.82;;
32080;SDS011;18593;51.426;7.030;2024-02-14T11:19:13;10.95;;;5.28;;
32080;SDS011;18593;51.426;7.030;2024-02-14T11:21:41;12.73;;;5.78;;
32080;SDS011;18593;51.426;7.030;2024-02-14T11:24:11;13.63;;;6.45;;
32080;SDS011;18593;51.426;7.030;2024-02-14T11:26:46;11.43;;;5.53;;
32080;SDS011;18593;51.426;7.030;2024-02-14T11:29:17;12.95;;;5.75;;
32080;SDS011;18593;51.426;7.030;2024-02-14T11:31:45;12.98;;;5.53;;
32080;SDS011;18593;51.426;7.030;2024-02-14T11:34:14;11.70;;;5.47;;
32080;SDS011;18593;51.426;7.030;2024-02-14T11:36:42;10.82;;;5.45;;
32080;SDS011;18593;51.426;7.030;2024-02-14T11:39:11;15.80;;;4.70;;
32080;SDS011;18593;51.426;7.030;2024-02-14T11:41:39;8.93;;;4.93;;
32080;SDS011;18593;51.426;7.030;2024-02-14T11:44:07;10.50;;;4.82;;
32080;SDS011;18593;51.426;7.030;2024-02-14T11:46:38;12.48;;;4.97;;
32080;SDS011;18593;51.426;7.030;2024-02-14T11:49:07;9.88;;;4.82;;
32080;SDS011;18593;51.426;7.030;2024-02-14T11:51:35;10.95;;;4.57;;
32080;SDS011;18593;51.426;7.030;2024-02-14T11:54:03;12.65;;;4.50;;
32080;SDS011;18593;51.426;7.030;2024-02-14T11:56:32;13.55;;;4.70;;
32080;SDS011;18593;51.426;7.030;2024-02-14T11:59:02;9.30;;;4.60;;
32080;SDS011;18593;51.426;7.030;2024-02-14T12:01:31;17.67;;;4.50;;
32080;SDS011;18593;51.426;7.030;2024-02-14T12:04:01;8.52;;;4.13;;
32080;SDS011;18593;51.426;7.030;2024-02-14T12:06:32;11.00;;;4.57;;
32080;SDS011;18593;51.426;7.030;2024-02-14T12:09:01;9.20;;;4.00;;
32080;SDS011;18593;51.426;7.030;2024-02-14T12:11:30;14.25;;;3.97;;
32080;SDS011;18593;51.426;7.030;2024-02-14T12:14:00;10.15;;;3.58;;
32080;SDS011;18593;51.426;7.030;2024-02-14T12:16:29;10.98;;;4.03;;
32080;SDS011;18593;51.426;7.030;2024-02-14T12:19:04;17.77;;;3.95;;
32080;SDS011;18593;51.426;7.030;2024-02-14T12:21:35;9.70;;;3.80;;
32080;SDS011;18593;51.426;7.030;2024-02-14T12:24:04;13.65;;;4.72;;
32080;SDS011;18593;51.426;7.030;2024-02-14T12:26:33;11.13;;;4.65;;
32080;SDS011;18593;51.426;7.030;2024-02-14T12:29:02;9.57;;;3.80;;
32080;SDS011;18593;51.426;7.030;2024-02-14T12:31:30;9.15;;;3.70;;
32080;SDS011;18593;51.426;7.030;2024-02-14T12:33:58;8.52;;;4.00;;
32080;SDS011;18593;51.426;7.030;2024-02-14T12:36:28;13.68;;;4.32;;
32080;SDS011;18593;51.426;7.030;2024-02-14T12:38:56;13.82;;;4.50;;
32080;SDS011;18593;51.426;7.030;2024-02-14T12:41:24;11.65;;;4.93;;
32080;SDS011;18593;51.426;7.030;2024-02-14T12:43:52;15.63;;;6.20;;
32080;SDS011;18593;51.426;7.030;2024-02-14T12:46:20;23.55;;;8.20;;
32080;SDS011;18593;51.426;7.030;2024-02-14T12:48:47;12.70;;;5.18;;
32080;SDS011;18593;51.426;7.030;2024-02-14T12:51:15;12.45;;;3.83;;
32080;SDS011;18593;51.426;7.030;2024-02-14T12:53:44;9.80;;;3.75;;
32080;SDS011;18593;51.426;7.030;2024-02-14T12:56:12;9.13;;;3.25;;
32080;SDS011;18593;51.426;7.030;2024-02-14T12:58:39;10.32;;;3.95;;
32080;SDS011;18593;51.426;7.030;2024-02-14T13:01:07;10.43;;;3.80;;
32080;SDS011;18593;51.426;7.030;2024-02-14T13:03:36;8.80;;;4.18;;
32080;SDS011;18593;51.426;7.030;2024-02-14T13:06:04;16.52;;;5.90;;
32080;SDS011;18593;51.426;7.030;2024-02-14T13:08:32;14.68;;;6.07;;
32080;SDS011;18593;51.426;7.030;2024-02-14T13:11:01;15.05;;;6.75;;
32080;SDS011;18593;51.426;7.030;2024-02-14T13:13:28;15.02;;;5.68;;
32080;SDS011;18593;51.426;7.030;2024-02-14T13:15:56;14.23;;;5.00;;
32080;SDS011;18593;51.426;7.030;2024-02-14T13:18:23;13.63;;;5.07;;
32080;SDS011;18593;51.426;7.030;2024-02-14T13:20:51;16.58;;;6.47;;
32080;SDS011;18593;51.426;7.030;2024-02-14T13:23:24;15.40;;;6.82;;
32080;SDS011;18593;51.426;7.030;2024-02-14T13:25:52;16.65;;;8.52;;
32080;SDS011;18593;51.426;7.030;2024-02-14T13:28:21;15.02;;;7.70;;
32080;SDS011;18593;51.426;7.030;2024-02-14T13:30:49;10.57;;;5.00;;
32080;SDS011;18593;51.426;7.030;2024-02-14T13:33:16;10.35;;;4.85;;
32080;SDS011;18593;51.426;7.030;2024-02-14T13:35:44;9.98;;;4.30;;
32080;SDS011;18593;51.426;7.030;2024-02-14T13:38:11;10.93;;;4.32;;
32080;SDS011;18593;51.426;7.030;2024-02-14T13:40:39;7.75;;;3.58;;
32080;SDS011;18593;51.426;7.030;2024-02-14T13:43:06;9.60;;;3.50;;
32080;SDS011;18593;51.426;7.030;2024-02-14T13:45:41;12.95;;;4.28;;
32080;SDS011;18593;51.426;7.030;2024-02-14T13:48:10;10.25;;;4.03;;
32080;SDS011;18593;51.426;7.030;2024-02-14T13:50:38;11.45;;;3.55;;
32080;SDS011;18593;51.426;7.030;2024-02-14T13:53:09;8.98;;;3.70;;
32080;SDS011;18593;51.426;7.030;2024-02-14T13:55:37;8.05;;;3.17;;
32080;SDS011;18593;51.426;7.030;2024-02-14T13:58:05;10.38;;;3.30;;
32080;SDS011;18593;51.426;7.030;2024-02-14T14:00:40;8.48;;;3.33;;
32080;SDS011;18593;51.426;7.030;2024-02-14T14:03:08;10.80;;;3.03;;
32080;SDS011;18593;51.426;7.030;2024-02-14T14:05:35;8.05;;;2.80;;
32080;SDS011;18593;51.426;7.030;2024-02-14T14:08:03;9.80;;;3.40;;
32080;SDS011;18593;51.426;7.030;2024-02-14T14:10:31;6.65;;;3.40;;
32080;SDS011;18593;51.426;7.030;2024-02-14T14:12:59;10.07;;;3.20;;
32080;SDS011;18593;51.426;7.030;2024-02-14T14:15:26;8.20;;;3.08;;
32080;SDS011;18593;51.426;7.030;2024-02-14T14:17:55;9.95;;;3.20;;
32080;SDS011;18593;51.426;7.030;2024-02-14T14:20:23;7.85;;;2.80;;
32080;SDS011;18593;51.426;7.030;2024-02-14T14:22:50;8.88;;;2.83;;
32080;SDS011;18593;51.426;7.030;2024-02-14T14:25:18;11.40;;;2.90;;
32080;SDS011;18593;51.426;7.030;2024-02-14T14:27:46;7.28;;;2.78;;
32080;SDS011;18593;51.426;7.030;2024-02-14T14:30:16;5.65;;;2.92;;
32080;SDS011;18593;51.426;7.030;2024-02-14T14:32:43;12.70;;;3.90;;
32080;SDS011;18593;51.426;7.030;2024-02-14T14:35:12;8.23;;;3.35;;
32080;SDS011;18593;51.426;7.030;2024-02-14T14:37:40;9.32;;;3.40;;
32080;SDS011;18593;51.426;7.030;2024-02-14T14:40:09;8.45;;;2.70;;
32080;SDS011;18593;51.426;7.030;2024-02-14T14:42:37;6.10;;;2.63;;
32080;SDS011;18593;51.426;7.030;2024-02-14T14:45:05;7.63;;;2.67;;
32080;SDS011;18593;51.426;7.030;2024-02-14T14:47:33;7.32;;;2.63;;
32080;SDS011;18593;51.426;7.030;2024-02-14T14:50:01;7.07;;;2.90;;